sensor_id;sensor_type;location;lat;lon;timestamp;pressure;altitude;pressure_sealevel;temperature;humidity
73824;BME280;62154;54.914;73.444;2022-09-09T00:02:28;100579.09;;;8.53;96.56
73824;BME280;62154;54.914;73.444;2022-09-09T00:05:28;100591.44;;;8.57;96.54
73824;BME280;62154;54.914;73.444;2022-09-09T00:08:02;100561.75;;;8.38;96.44
73824;BME280;62154;54.914;73.444;2022-09-09T00:10:39;100595.25;;;8.56;96.49
73824;BME280;62154;54.914;73.444;2022-09-09T00:13:33;100602.34;;;8.59;96.60
73824;BME280;62154;54.914;73.444;2022-09-09T00:16:19;100577.72;;;8.42;96.53
73824;BME280;62154;54.914;73.444;2022-09-09T00:21:19;100566.31;;;8.24;96.53
73824;BME280;62154;54.914;73.444;2022-09-09T00:23:59;100615.25;;;8.52;96.83
73824;BME280;62154;54.914;73.444;2022-09-09T00:26:51;100610.09;;;8.48;96.96
73824;BME280;62154;54.914;73.444;2022-09-09T00:32:21;100585.91;;;8.29;97.15
73824;BME280;62154;54.914;73.444;2022-09-09T00:35:02;100603.81;;;8.40;97.26
73824;BME280;62154;54.914;73.444;2022-09-09T00:37:39;100617.25;;;8.43;97.28
73824;BME280;62154;54.914;73.444;2022-09-09T00:48:15;100574.69;;;8.09;97.08
73824;BME280;62154;54.914;73.444;2022-09-09T00:50:50;100612.41;;;8.23;97.09
73824;BME280;62154;54.914;73.444;2022-09-09T00:53:36;100595.94;;;8.08;96.89
73824;BME280;62154;54.914;73.444;2022-09-09T00:56:14;100608.09;;;8.14;96.92
73824;BME280;62154;54.914;73.444;2022-09-09T00:59:08;100600.22;;;8.11;96.77
73824;BME280;62154;54.914;73.444;2022-09-09T01:01:38;100602.50;;;8.07;96.83
73824;BME280;62154;54.914;73.444;2022-09-09T01:04:13;100557.88;;;7.82;96.83
73824;BME280;62154;54.914;73.444;2022-09-09T01:06:45;100595.59;;;7.96;96.94
73824;BME280;62154;54.914;73.444;2022-09-09T01:09:45;100600.91;;;7.98;96.90
73824;BME280;62154;54.914;73.444;2022-09-09T01:15:12;100592.56;;;7.91;96.99
73824;BME280;62154;54.914;73.444;2022-09-09T01:18:06;100598.50;;;7.88;97.39
73824;BME280;62154;54.914;73.444;2022-09-09T01:20:45;100600.22;;;7.89;97.39
73824;BME280;62154;54.914;73.444;2022-09-09T01:26:39;100595.34;;;7.91;97.71
73824;BME280;62154;54.914;73.444;2022-09-09T01:29:16;100606.66;;;7.96;97.71
73824;BME280;62154;54.914;73.444;2022-09-09T01:31:59;100608.41;;;8.04;98.04
73824;BME280;62154;54.914;73.444;2022-09-09T01:34:39;100614.47;;;8.14;97.60
73824;BME280;62154;54.914;73.444;2022-09-09T01:37:13;100612.81;;;8.20;97.49
73824;BME280;62154;54.914;73.444;2022-09-09T01:39:43;100588.09;;;8.12;97.19
73824;BME280;62154;54.914;73.444;2022-09-09T01:42:15;100615.88;;;8.32;97.06
73824;BME280;62154;54.914;73.444;2022-09-09T01:44:46;100613.00;;;8.40;96.86
73824;BME280;62154;54.914;73.444;2022-09-09T01:47:15;100620.03;;;8.43;96.87
73824;BME280;62154;54.914;73.444;2022-09-09T01:50:18;100581.63;;;8.26;96.63
73824;BME280;62154;54.914;73.444;2022-09-09T01:52:52;100621.59;;;8.52;96.57
73824;BME280;62154;54.914;73.444;2022-09-09T01:55:44;100621.41;;;8.54;96.82
73824;BME280;62154;54.914;73.444;2022-09-09T02:01:22;100626.19;;;8.67;96.90
73824;BME280;62154;54.914;73.444;2022-09-09T02:04:35;100627.06;;;8.74;96.68
73824;BME280;62154;54.914;73.444;2022-09-09T02:13:25;100587.34;;;8.81;95.85
73824;BME280;62154;54.914;73.444;2022-09-09T02:16:28;100607.72;;;9.09;95.83
73824;BME280;62154;54.914;73.444;2022-09-09T02:19:17;100582.59;;;9.04;95.67
73824;BME280;62154;54.914;73.444;2022-09-09T02:22:01;100609.31;;;9.32;94.71
73824;BME280;62154;54.914;73.444;2022-09-09T02:24:31;100560.47;;;9.10;94.68
73824;BME280;62154;54.914;73.444;2022-09-09T02:27:11;100588.06;;;9.39;93.47
73824;BME280;62154;54.914;73.444;2022-09-09T02:29:42;100607.31;;;9.60;93.58
73824;BME280;62154;54.914;73.444;2022-09-09T02:32:18;100622.03;;;9.81;93.27
73824;BME280;62154;54.914;73.444;2022-09-09T02:34:51;100598.81;;;9.75;91.93
73824;BME280;62154;54.914;73.444;2022-09-09T02:37:24;100620.59;;;9.99;91.84
73824;BME280;62154;54.914;73.444;2022-09-09T02:39:56;100625.91;;;10.07;91.44
73824;BME280;62154;54.914;73.444;2022-09-09T02:42:24;100579.22;;;9.90;90.91
73824;BME280;62154;54.914;73.444;2022-09-09T02:44:54;100589.47;;;9.96;90.53
73824;BME280;62154;54.914;73.444;2022-09-09T02:48:14;100615.91;;;10.19;90.31
73824;BME280;62154;54.914;73.444;2022-09-09T02:50:26;100609.97;;;10.22;89.86
73824;BME280;62154;54.914;73.444;2022-09-09T02:56:03;100622.16;;;10.41;89.64
73824;BME280;62154;54.914;73.444;2022-09-09T02:58:36;100599.31;;;10.46;89.56
73824;BME280;62154;54.914;73.444;2022-09-09T03:01:06;100613.84;;;10.62;89.41
73824;BME280;62154;54.914;73.444;2022-09-09T03:03:33;100604.63;;;10.68;88.65
73824;BME280;62154;54.914;73.444;2022-09-09T03:06:04;100616.78;;;10.80;87.70
73824;BME280;62154;54.914;73.444;2022-09-09T03:08:32;100609.06;;;10.89;87.78
73824;BME280;62154;54.914;73.444;2022-09-09T03:11:01;100602.44;;;10.97;87.31
73824;BME280;62154;54.914;73.444;2022-09-09T03:13:31;100606.91;;;11.11;86.79
73824;BME280;62154;54.914;73.444;2022-09-09T03:16:09;100577.66;;;11.02;84.88
73824;BME280;62154;54.914;73.444;2022-09-09T03:18:42;100584.06;;;11.09;84.71
73824;BME280;62154;54.914;73.444;2022-09-09T03:21:14;100592.72;;;11.33;84.65
73824;BME280;62154;54.914;73.444;2022-09-09T03:23:42;100566.69;;;11.27;83.32
73824;BME280;62154;54.914;73.444;2022-09-09T03:26:16;100579.00;;;11.45;82.81
73824;BME280;62154;54.914;73.444;2022-09-09T03:28:50;100594.72;;;11.57;83.16
73824;BME280;62154;54.914;73.444;2022-09-09T03:31:26;100610.44;;;11.77;82.02
73824;BME280;62154;54.914;73.444;2022-09-09T03:33:58;100547.34;;;11.52;81.36
73824;BME280;62154;54.914;73.444;2022-09-09T03:36:28;100567.47;;;11.80;81.48
73824;BME280;62154;54.914;73.444;2022-09-09T03:38:56;100560.56;;;11.89;81.56
73824;BME280;62154;54.914;73.444;2022-09-09T03:41:25;100593.91;;;12.21;82.30
73824;BME280;62154;54.914;73.444;2022-09-09T03:43:54;100595.53;;;12.35;81.40
73824;BME280;62154;54.914;73.444;2022-09-09T03:46:25;100589.84;;;12.49;80.15
73824;BME280;62154;54.914;73.444;2022-09-09T03:48:54;100603.63;;;12.62;80.47
73824;BME280;62154;54.914;73.444;2022-09-09T03:51:22;100560.72;;;12.51;79.67
73824;BME280;62154;54.914;73.444;2022-09-09T03:53:57;100592.38;;;12.76;78.76
73824;BME280;62154;54.914;73.444;2022-09-09T03:56:26;100601.44;;;12.89;80.14
73824;BME280;62154;54.914;73.444;2022-09-09T03:58:53;100605.13;;;13.02;78.61
73824;BME280;62154;54.914;73.444;2022-09-09T04:01:21;100602.16;;;13.03;77.09
73824;BME280;62154;54.914;73.444;2022-09-09T04:03:48;100603.28;;;13.14;76.05
73824;BME280;62154;54.914;73.444;2022-09-09T04:06:17;100600.91;;;13.18;77.89
73824;BME280;62154;54.914;73.444;2022-09-09T04:08:46;100597.78;;;13.26;77.55
73824;BME280;62154;54.914;73.444;2022-09-09T04:11:19;100573.69;;;13.20;76.58
73824;BME280;62154;54.914;73.444;2022-09-09T04:13:50;100545.53;;;13.10;75.35
73824;BME280;62154;54.914;73.444;2022-09-09T04:16:18;100589.69;;;13.43;76.47
73824;BME280;62154;54.914;73.444;2022-09-09T04:18:47;100608.81;;;13.58;76.27
73824;BME280;62154;54.914;73.444;2022-09-09T04:21:22;100575.22;;;13.53;77.79
73824;BME280;62154;54.914;73.444;2022-09-09T04:23:50;100581.31;;;13.62;76.61
73824;BME280;62154;54.914;73.444;2022-09-09T04:26:18;100582.44;;;13.73;75.63
73824;BME280;62154;54.914;73.444;2022-09-09T04:28:46;100623.41;;;14.02;74.81
73824;BME280;62154;54.914;73.444;2022-09-09T04:31:20;100622.31;;;14.03;70.72
73824;BME280;62154;54.914;73.444;2022-09-09T04:33:52;100593.19;;;13.99;70.94
73824;BME280;62154;54.914;73.444;2022-09-09T04:36:19;100594.06;;;14.12;70.27
73824;BME280;62154;54.914;73.444;2022-09-09T04:38:53;100612.19;;;14.33;68.61
73824;BME280;62154;54.914;73.444;2022-09-09T04:41:21;100616.09;;;14.44;68.36
73824;BME280;62154;54.914;73.444;2022-09-09T04:43:51;100608.72;;;14.49;67.01
73824;BME280;62154;54.914;73.444;2022-09-09T04:46:31;100608.97;;;14.60;65.86
73824;BME280;62154;54.914;73.444;2022-09-09T04:48:58;100610.44;;;14.74;66.17
73824;BME280;62154;54.914;73.444;2022-09-09T04:51:29;100601.00;;;14.87;67.21
73824;BME280;62154;54.914;73.444;2022-09-09T04:53:58;100605.47;;;15.00;65.33
73824;BME280;62154;54.914;73.444;2022-09-09T04:56:25;100586.03;;;15.05;64.30
73824;BME280;62154;54.914;73.444;2022-09-09T04:58:57;100606.03;;;15.26;63.50
73824;BME280;62154;54.914;73.444;2022-09-09T05:01:35;100580.16;;;15.19;64.81
73824;BME280;62154;54.914;73.444;2022-09-09T05:04:15;100602.00;;;15.45;64.70
73824;BME280;62154;54.914;73.444;2022-09-09T05:06:43;100591.03;;;15.56;62.62
73824;BME280;62154;54.914;73.444;2022-09-09T05:09:17;100567.94;;;15.48;63.07
73824;BME280;62154;54.914;73.444;2022-09-09T05:11:46;100582.69;;;15.73;61.62
73824;BME280;62154;54.914;73.444;2022-09-09T05:14:35;100585.47;;;15.73;60.90
73824;BME280;62154;54.914;73.444;2022-09-09T05:17:05;100593.28;;;15.71;61.39
73824;BME280;62154;54.914;73.444;2022-09-09T05:19:33;100559.66;;;15.54;61.30
73824;BME280;62154;54.914;73.444;2022-09-09T05:22:00;100588.97;;;15.80;61.58
73824;BME280;62154;54.914;73.444;2022-09-09T05:24:49;100565.53;;;15.69;60.56
73824;BME280;62154;54.914;73.444;2022-09-09T05:27:18;100570.00;;;15.82;60.94
73824;BME280;62154;54.914;73.444;2022-09-09T05:29:47;100581.53;;;15.86;60.88
73824;BME280;62154;54.914;73.444;2022-09-09T05:32:15;100552.66;;;15.68;59.59
73824;BME280;62154;54.914;73.444;2022-09-09T05:34:45;100564.06;;;15.78;60.62
73824;BME280;62154;54.914;73.444;2022-09-09T05:37:13;100573.28;;;15.79;59.84
73824;BME280;62154;54.914;73.444;2022-09-09T05:39:40;100567.34;;;15.75;58.64
73824;BME280;62154;54.914;73.444;2022-09-09T05:42:07;100540.03;;;15.65;58.41
73824;BME280;62154;54.914;73.444;2022-09-09T05:44:35;100545.50;;;15.72;58.83
73824;BME280;62154;54.914;73.444;2022-09-09T05:47:03;100544.63;;;15.84;58.78
73824;BME280;62154;54.914;73.444;2022-09-09T05:49:30;100538.50;;;15.87;57.92
73824;BME280;62154;54.914;73.444;2022-09-09T05:51:57;100541.56;;;16.02;58.52
73824;BME280;62154;54.914;73.444;2022-09-09T05:54:24;100499.38;;;15.87;58.70
73824;BME280;62154;54.914;73.444;2022-09-09T05:56:53;100530.69;;;16.18;58.27
73824;BME280;62154;54.914;73.444;2022-09-09T05:59:20;100553.72;;;16.42;57.89
73824;BME280;62154;54.914;73.444;2022-09-09T06:02:01;100556.69;;;16.52;57.08
73824;BME280;62154;54.914;73.444;2022-09-09T06:04:34;100548.72;;;16.61;56.04
73824;BME280;62154;54.914;73.444;2022-09-09T06:07:07;100522.22;;;16.52;56.03
73824;BME280;62154;54.914;73.444;2022-09-09T06:09:35;100548.31;;;16.74;56.63
73824;BME280;62154;54.914;73.444;2022-09-09T06:12:02;100556.38;;;16.88;55.32
73824;BME280;62154;54.914;73.444;2022-09-09T06:14:33;100552.47;;;16.89;54.79
73824;BME280;62154;54.914;73.444;2022-09-09T06:17:01;100559.53;;;16.91;54.41
73824;BME280;62154;54.914;73.444;2022-09-09T06:19:30;100539.66;;;16.93;55.94
73824;BME280;62154;54.914;73.444;2022-09-09T06:21:59;100531.88;;;16.95;58.12
73824;BME280;62154;54.914;73.444;2022-09-09T06:24:28;100527.16;;;17.01;57.73
73824;BME280;62154;54.914;73.444;2022-09-09T06:26:58;100527.44;;;16.99;55.74
73824;BME280;62154;54.914;73.444;2022-09-09T06:29:29;100519.28;;;16.98;56.15
73824;BME280;62154;54.914;73.444;2022-09-09T06:32:02;100504.50;;;17.02;54.85
73824;BME280;62154;54.914;73.444;2022-09-09T06:34:34;100464.41;;;16.79;54.92
73824;BME280;62154;54.914;73.444;2022-09-09T06:37:03;100453.28;;;16.85;52.94
73824;BME280;62154;54.914;73.444;2022-09-09T06:39:37;100496.31;;;17.18;53.17
73824;BME280;62154;54.914;73.444;2022-09-09T06:42:04;100471.59;;;17.15;51.88
73824;BME280;62154;54.914;73.444;2022-09-09T06:44:46;100495.16;;;17.41;52.19
73824;BME280;62154;54.914;73.444;2022-09-09T06:47:21;100473.88;;;17.45;50.75
73824;BME280;62154;54.914;73.444;2022-09-09T06:49:58;100481.94;;;17.64;49.21
73824;BME280;62154;54.914;73.444;2022-09-09T06:52:26;100479.19;;;17.69;49.88
73824;BME280;62154;54.914;73.444;2022-09-09T06:54:54;100479.00;;;17.81;48.54
73824;BME280;62154;54.914;73.444;2022-09-09T06:57:22;100443.59;;;17.74;48.13
73824;BME280;62154;54.914;73.444;2022-09-09T06:59:49;100448.75;;;17.83;47.73
73824;BME280;62154;54.914;73.444;2022-09-09T07:02:17;100467.44;;;17.99;47.50
73824;BME280;62154;54.914;73.444;2022-09-09T07:04:44;100446.25;;;17.86;47.75
73824;BME280;62154;54.914;73.444;2022-09-09T07:07:13;100453.13;;;18.01;46.81
73824;BME280;62154;54.914;73.444;2022-09-09T07:09:42;100432.06;;;17.98;46.61
73824;BME280;62154;54.914;73.444;2022-09-09T07:12:12;100441.66;;;18.07;47.07
73824;BME280;62154;54.914;73.444;2022-09-09T07:14:45;100422.53;;;17.99;47.16
73824;BME280;62154;54.914;73.444;2022-09-09T07:17:13;100435.59;;;18.21;46.65
73824;BME280;62154;54.914;73.444;2022-09-09T07:19:40;100439.06;;;18.33;46.83
73824;BME280;62154;54.914;73.444;2022-09-09T07:22:07;100427.00;;;18.38;45.59
73824;BME280;62154;54.914;73.444;2022-09-09T07:24:36;100426.50;;;18.46;45.70
73824;BME280;62154;54.914;73.444;2022-09-09T07:27:04;100410.25;;;18.53;45.28
73824;BME280;62154;54.914;73.444;2022-09-09T07:29:32;100415.66;;;18.70;44.87
73824;BME280;62154;54.914;73.444;2022-09-09T07:32:09;100369.59;;;18.71;44.71
73824;BME280;62154;54.914;73.444;2022-09-09T07:34:38;100401.13;;;18.89;43.39
73824;BME280;62154;54.914;73.444;2022-09-09T07:37:05;100397.81;;;18.97;43.72
73824;BME280;62154;54.914;73.444;2022-09-09T07:39:33;100361.50;;;18.85;43.59
73824;BME280;62154;54.914;73.444;2022-09-09T07:42:01;100390.53;;;19.01;43.03
73824;BME280;62154;54.914;73.444;2022-09-09T07:44:29;100387.97;;;19.00;41.97
73824;BME280;62154;54.914;73.444;2022-09-09T07:47:02;100377.06;;;19.14;42.69
73824;BME280;62154;54.914;73.444;2022-09-09T07:49:35;100370.34;;;19.25;42.74
73824;BME280;62154;54.914;73.444;2022-09-09T07:52:04;100362.47;;;19.32;42.15
73824;BME280;62154;54.914;73.444;2022-09-09T07:54:33;100334.91;;;19.24;41.48
73824;BME280;62154;54.914;73.444;2022-09-09T07:57:04;100349.25;;;19.22;41.29
73824;BME280;62154;54.914;73.444;2022-09-09T07:59:34;100370.91;;;19.32;41.40
73824;BME280;62154;54.914;73.444;2022-09-09T08:02:01;100360.25;;;19.29;40.06
73824;BME280;62154;54.914;73.444;2022-09-09T08:04:41;100330.97;;;19.15;41.57
73824;BME280;62154;54.914;73.444;2022-09-09T08:07:08;100367.53;;;19.40;39.26
73824;BME280;62154;54.914;73.444;2022-09-09T08:09:46;100323.13;;;19.32;39.93
73824;BME280;62154;54.914;73.444;2022-09-09T08:12:20;100350.69;;;19.51;39.84
73824;BME280;62154;54.914;73.444;2022-09-09T08:14:47;100324.25;;;19.36;39.04
73824;BME280;62154;54.914;73.444;2022-09-09T08:17:16;100302.03;;;19.30;38.83
73824;BME280;62154;54.914;73.444;2022-09-09T08:19:47;100312.16;;;19.31;38.87
73824;BME280;62154;54.914;73.444;2022-09-09T08:22:20;100334.38;;;19.37;38.16
73824;BME280;62154;54.914;73.444;2022-09-09T08:24:49;100320.88;;;19.29;38.18
73824;BME280;62154;54.914;73.444;2022-09-09T08:27:17;100330.44;;;19.33;38.00
73824;BME280;62154;54.914;73.444;2022-09-09T08:29:47;100327.06;;;19.31;38.89
73824;BME280;62154;54.914;73.444;2022-09-09T08:32:20;100323.13;;;19.37;39.08
73824;BME280;62154;54.914;73.444;2022-09-09T08:34:47;100320.88;;;19.45;39.31
73824;BME280;62154;54.914;73.444;2022-09-09T08:37:20;100307.66;;;19.35;38.80
73824;BME280;62154;54.914;73.444;2022-09-09T08:39:49;100302.63;;;19.32;38.17
73824;BME280;62154;54.914;73.444;2022-09-09T08:42:32;100318.59;;;19.52;39.50
73824;BME280;62154;54.914;73.444;2022-09-09T08:48:06;100304.81;;;19.92;38.81
73824;BME280;62154;54.914;73.444;2022-09-09T08:50:39;100298.03;;;20.03;39.28
73824;BME280;62154;54.914;73.444;2022-09-09T08:53:23;100283.44;;;19.91;37.92
73824;BME280;62154;54.914;73.444;2022-09-09T08:55:58;100293.84;;;19.95;38.38
73824;BME280;62154;54.914;73.444;2022-09-09T08:58:33;100282.59;;;19.95;38.51
73824;BME280;62154;54.914;73.444;2022-09-09T09:03:58;100280.63;;;19.91;38.70
73824;BME280;62154;54.914;73.444;2022-09-09T09:11:48;100247.16;;;19.63;37.12
73824;BME280;62154;54.914;73.444;2022-09-09T09:14:27;100258.94;;;19.81;35.91
73824;BME280;62154;54.914;73.444;2022-09-09T09:19:34;100255.00;;;19.92;35.70
73824;BME280;62154;54.914;73.444;2022-09-09T09:22:32;100249.09;;;19.99;35.22
73824;BME280;62154;54.914;73.444;2022-09-09T09:30:26;100236.06;;;20.18;36.30
73824;BME280;62154;54.914;73.444;2022-09-09T09:35:28;100222.84;;;20.14;35.75
73824;BME280;62154;54.914;73.444;2022-09-09T09:38:01;100208.50;;;20.05;34.87
73824;BME280;62154;54.914;73.444;2022-09-09T09:40:51;100222.81;;;20.19;33.88
73824;BME280;62154;54.914;73.444;2022-09-09T09:43:33;100222.25;;;20.22;33.14
73824;BME280;62154;54.914;73.444;2022-09-09T09:46:05;100174.75;;;20.05;32.39
73824;BME280;62154;54.914;73.444;2022-09-09T09:48:56;100200.06;;;20.15;32.35
73824;BME280;62154;54.914;73.444;2022-09-09T09:51:30;100206.56;;;20.06;32.58
73824;BME280;62154;54.914;73.444;2022-09-09T09:56:52;100179.88;;;19.77;32.78
73824;BME280;62154;54.914;73.444;2022-09-09T09:59:34;100165.63;;;19.53;33.27
73824;BME280;62154;54.914;73.444;2022-09-09T10:02:16;100151.34;;;19.34;32.14
73824;BME280;62154;54.914;73.444;2022-09-09T10:07:45;100194.88;;;19.62;32.91
73824;BME280;62154;54.914;73.444;2022-09-09T10:10:31;100166.50;;;19.48;33.18
73824;BME280;62154;54.914;73.444;2022-09-09T10:30:24;100165.69;;;19.37;34.75
73824;BME280;62154;54.914;73.444;2022-09-09T10:33:12;100116.28;;;19.05;35.13
73824;BME280;62154;54.914;73.444;2022-09-09T10:38:45;100107.25;;;19.09;34.97
73824;BME280;62154;54.914;73.444;2022-09-09T10:41:19;100172.97;;;19.44;34.25
73824;BME280;62154;54.914;73.444;2022-09-09T10:44:23;100169.84;;;19.50;35.34
73824;BME280;62154;54.914;73.444;2022-09-09T10:50:29;100172.38;;;19.62;34.83
73824;BME280;62154;54.914;73.444;2022-09-09T10:54:07;100176.28;;;19.66;34.80
73824;BME280;62154;54.914;73.444;2022-09-09T10:56:16;100153.28;;;19.44;35.70
73824;BME280;62154;54.914;73.444;2022-09-09T10:58:58;100186.72;;;19.50;35.45
73824;BME280;62154;54.914;73.444;2022-09-09T11:02:01;100183.66;;;19.42;35.41
73824;BME280;62154;54.914;73.444;2022-09-09T11:04:40;100155.28;;;19.22;35.41
73824;BME280;62154;54.914;73.444;2022-09-09T11:07:14;100189.00;;;19.38;35.94
73824;BME280;62154;54.914;73.444;2022-09-09T11:09:52;100185.94;;;19.39;36.12
73824;BME280;62154;54.914;73.444;2022-09-09T11:12:30;100179.16;;;19.35;36.01
73824;BME280;62154;54.914;73.444;2022-09-09T11:15:04;100176.34;;;19.40;36.76
73824;BME280;62154;54.914;73.444;2022-09-09T11:17:50;100165.69;;;19.37;36.22
73824;BME280;62154;54.914;73.444;2022-09-09T11:20:19;100179.72;;;19.43;35.82
73824;BME280;62154;54.914;73.444;2022-09-09T11:23:09;100165.09;;;19.35;36.64
73824;BME280;62154;54.914;73.444;2022-09-09T11:25:54;100182.50;;;19.48;36.31
73824;BME280;62154;54.914;73.444;2022-09-09T11:28:51;100183.38;;;19.43;36.34
73824;BME280;62154;54.914;73.444;2022-09-09T11:31:53;100202.22;;;19.43;37.13
73824;BME280;62154;54.914;73.444;2022-09-09T11:37:49;100187.03;;;19.38;35.89
73824;BME280;62154;54.914;73.444;2022-09-09T11:40:25;100190.97;;;19.37;36.42
73824;BME280;62154;54.914;73.444;2022-09-09T11:43:13;100173.53;;;19.35;35.71
73824;BME280;62154;54.914;73.444;2022-09-09T11:45:43;100188.16;;;19.37;35.76
73824;BME280;62154;54.914;73.444;2022-09-09T11:48:38;100185.09;;;19.29;35.96
73824;BME280;62154;54.914;73.444;2022-09-09T11:51:12;100185.09;;;19.18;36.66
73824;BME280;62154;54.914;73.444;2022-09-09T11:56:46;100171.91;;;18.93;36.56
73824;BME280;62154;54.914;73.444;2022-09-09T11:59:29;100177.22;;;18.89;36.96
73824;BME280;62154;54.914;73.444;2022-09-09T12:02:02;100177.78;;;18.86;37.51
73824;BME280;62154;54.914;73.444;2022-09-09T12:04:35;100174.13;;;18.81;36.70
73824;BME280;62154;54.914;73.444;2022-09-09T12:10:30;100150.53;;;18.66;37.26
73824;BME280;62154;54.914;73.444;2022-09-09T12:13:29;100176.09;;;18.65;37.11
73824;BME280;62154;54.914;73.444;2022-09-09T12:15:59;100206.41;;;18.68;36.47
73824;BME280;62154;54.914;73.444;2022-09-09T12:18:38;100192.91;;;18.54;36.30
73824;BME280;62154;54.914;73.444;2022-09-09T12:21:38;100204.72;;;18.51;36.50
73824;BME280;62154;54.914;73.444;2022-09-09T12:24:29;100192.59;;;18.35;35.94
73824;BME280;62154;54.914;73.444;2022-09-09T12:27:28;100174.31;;;18.22;36.14
73824;BME280;62154;54.914;73.444;2022-09-09T12:30:03;100207.75;;;18.29;36.67
73824;BME280;62154;54.914;73.444;2022-09-09T12:32:31;100209.41;;;18.20;36.94
73824;BME280;62154;54.914;73.444;2022-09-09T12:35:12;100201.78;;;18.10;36.75
73824;BME280;62154;54.914;73.444;2022-09-09T12:37:56;100202.63;;;18.05;37.26
73824;BME280;62154;54.914;73.444;2022-09-09T12:40:27;100202.03;;;17.98;37.95
73824;BME280;62154;54.914;73.444;2022-09-09T12:43:22;100204.19;;;17.91;38.37
73824;BME280;62154;54.914;73.444;2022-09-09T12:45:49;100179.75;;;17.76;38.64
73824;BME280;62154;54.914;73.444;2022-09-09T12:48:31;100199.44;;;17.91;38.78
73824;BME280;62154;54.914;73.444;2022-09-09T12:51:00;100156.13;;;17.67;38.77
73824;BME280;62154;54.914;73.444;2022-09-09T12:53:34;100199.78;;;17.95;38.29
73824;BME280;62154;54.914;73.444;2022-09-09T12:56:07;100190.16;;;17.86;37.85
73824;BME280;62154;54.914;73.444;2022-09-09T12:58:38;100191.53;;;17.78;37.33
73824;BME280;62154;54.914;73.444;2022-09-09T13:01:28;100202.75;;;17.78;37.62
73824;BME280;62154;54.914;73.444;2022-09-09T13:03:56;100205.81;;;17.76;37.58
73824;BME280;62154;54.914;73.444;2022-09-09T13:06:29;100170.38;;;17.55;38.05
73824;BME280;62154;54.914;73.444;2022-09-09T13:09:01;100181.59;;;17.55;38.06
73824;BME280;62154;54.914;73.444;2022-09-09T13:11:43;100202.41;;;17.69;37.96
73824;BME280;62154;54.914;73.444;2022-09-09T13:14:26;100204.63;;;17.62;38.66
73824;BME280;62154;54.914;73.444;2022-09-09T13:16:57;100202.09;;;17.60;38.92
73824;BME280;62154;54.914;73.444;2022-09-09T13:19:25;100173.63;;;17.36;38.89
73824;BME280;62154;54.914;73.444;2022-09-09T13:21:55;100187.66;;;17.36;39.18
73824;BME280;62154;54.914;73.444;2022-09-09T13:27:02;100204.38;;;17.21;40.09
73824;BME280;62154;54.914;73.444;2022-09-09T13:29:31;100210.72;;;17.11;40.62
73824;BME280;62154;54.914;73.444;2022-09-09T13:32:06;100205.59;;;16.98;40.97
73824;BME280;62154;54.914;73.444;2022-09-09T13:34:35;100205.16;;;16.84;41.17
73824;BME280;62154;54.914;73.444;2022-09-09T13:37:05;100210.69;;;16.73;41.47
73824;BME280;62154;54.914;73.444;2022-09-09T13:39:37;100208.56;;;16.58;41.79
73824;BME280;62154;54.914;73.444;2022-09-09T13:42:05;100215.50;;;16.51;42.22
73824;BME280;62154;54.914;73.444;2022-09-09T13:44:39;100203.53;;;16.33;42.39
73824;BME280;62154;54.914;73.444;2022-09-09T13:47:19;100191.00;;;16.13;42.77
73824;BME280;62154;54.914;73.444;2022-09-09T13:49:47;100212.88;;;16.17;43.22
73824;BME280;62154;54.914;73.444;2022-09-09T13:52:17;100196.69;;;15.96;43.87
73824;BME280;62154;54.914;73.444;2022-09-09T13:54:49;100226.34;;;15.97;44.14
73824;BME280;62154;54.914;73.444;2022-09-09T13:57:30;100214.09;;;15.81;44.17
73824;BME280;62154;54.914;73.444;2022-09-09T14:00:06;100196.09;;;15.55;44.42
73824;BME280;62154;54.914;73.444;2022-09-09T14:02:36;100218.53;;;15.60;44.81
73824;BME280;62154;54.914;73.444;2022-09-09T14:05:05;100193.94;;;15.40;44.94
73824;BME280;62154;54.914;73.444;2022-09-09T14:07:32;100227.03;;;15.48;45.38
73824;BME280;62154;54.914;73.444;2022-09-09T14:09:59;100223.56;;;15.41;45.83
73824;BME280;62154;54.914;73.444;2022-09-09T14:12:26;100219.78;;;15.30;46.17
73824;BME280;62154;54.914;73.444;2022-09-09T14:14:54;100237.91;;;15.28;46.43
73824;BME280;62154;54.914;73.444;2022-09-09T14:17:20;100239.41;;;15.19;46.73
73824;BME280;62154;54.914;73.444;2022-09-09T14:19:54;100251.88;;;15.11;47.35
73824;BME280;62154;54.914;73.444;2022-09-09T14:22:21;100240.78;;;14.99;47.43
73824;BME280;62154;54.914;73.444;2022-09-09T14:24:49;100243.91;;;14.86;47.89
73824;BME280;62154;54.914;73.444;2022-09-09T14:27:17;100213.69;;;14.65;48.11
73824;BME280;62154;54.914;73.444;2022-09-09T14:29:55;100243.72;;;14.75;48.56
73824;BME280;62154;54.914;73.444;2022-09-09T14:32:23;100231.16;;;14.61;48.86
73824;BME280;62154;54.914;73.444;2022-09-09T14:34:55;100258.44;;;14.59;49.30
73824;BME280;62154;54.914;73.444;2022-09-09T14:37:23;100235.66;;;14.33;50.41
73824;BME280;62154;54.914;73.444;2022-09-09T14:39:51;100261.94;;;14.37;51.02
73824;BME280;62154;54.914;73.444;2022-09-09T14:42:18;100255.56;;;14.25;51.53
73824;BME280;62154;54.914;73.444;2022-09-09T14:44:45;100236.72;;;14.03;52.07
73824;BME280;62154;54.914;73.444;2022-09-09T14:47:15;100250.66;;;14.03;52.42
73824;BME280;62154;54.914;73.444;2022-09-09T14:49:42;100249.72;;;13.97;52.47
73824;BME280;62154;54.914;73.444;2022-09-09T14:52:09;100245.25;;;13.84;52.57
73824;BME280;62154;54.914;73.444;2022-09-09T14:54:36;100232.19;;;13.73;53.40